createdAt,value
2022-11-10T00:01:09.306Z,13.40
2022-11-10T00:03:54.415Z,14.25
2022-11-10T00:06:41.308Z,8.25
2022-11-10T00:09:26.699Z,14.00
2022-11-10T00:12:11.578Z,10.88
2022-11-10T00:14:56.949Z,11.68
2022-11-10T00:17:42.169Z,11.93
2022-11-10T00:20:27.764Z,11.68
2022-11-10T00:23:14.821Z,11.90
2022-11-10T00:25:59.770Z,10.18
2022-11-10T00:28:45.722Z,10.32
2022-11-10T00:31:30.917Z,6.88
2022-11-10T00:34:16.982Z,10.88
2022-11-10T00:37:02.252Z,11.35
2022-11-10T00:39:48.982Z,9.75
2022-11-10T00:42:34.352Z,12.55
2022-11-10T00:45:19.477Z,7.85
2022-11-10T00:48:05.104Z,10.00
2022-11-10T00:50:50.596Z,15.57
2022-11-10T00:53:35.860Z,10.90
2022-11-10T00:56:23.633Z,10.95
2022-11-10T00:59:09.101Z,13.32
2022-11-10T01:01:54.103Z,12.35
2022-11-10T01:04:39.302Z,17.30
2022-11-10T01:07:24.308Z,11.20
2022-11-10T01:10:09.513Z,7.90
2022-11-10T01:12:55.967Z,10.93
2022-11-10T01:15:44.272Z,12.02
2022-11-10T01:18:29.481Z,9.05
2022-11-10T01:21:14.581Z,15.27
2022-11-10T01:23:59.934Z,10.80
2022-11-10T01:26:45.326Z,9.70
2022-11-10T01:29:31.803Z,6.63
2022-11-10T01:32:17.175Z,10.40
2022-11-10T01:35:02.232Z,14.55
2022-11-10T01:37:47.135Z,11.73
2022-11-10T01:40:32.545Z,14.27
2022-11-10T01:43:17.962Z,14.77
2022-11-10T01:46:05.796Z,12.20
2022-11-10T01:48:54.528Z,10.30
2022-11-10T01:51:44.721Z,12.45
2022-11-10T01:54:34.684Z,12.30
2022-11-10T01:57:20.259Z,12.55
2022-11-10T02:00:06.389Z,9.40
2022-11-10T02:03:00.108Z,11.95
2022-11-10T02:05:45.528Z,12.80
2022-11-10T02:08:30.945Z,7.45
2022-11-10T02:11:16.387Z,13.20
2022-11-10T02:14:02.109Z,12.77
2022-11-10T02:16:47.846Z,12.77
2022-11-10T02:19:40.553Z,13.27
2022-11-10T02:22:27.522Z,12.85
2022-11-10T02:25:15.905Z,13.50
2022-11-10T02:28:01.123Z,10.35
2022-11-10T02:30:46.272Z,10.23
2022-11-10T02:33:31.760Z,13.48
2022-11-10T02:36:17.230Z,12.57
2022-11-10T02:39:03.852Z,17.40
2022-11-10T02:41:49.142Z,13.93
2022-11-10T02:44:34.096Z,13.23
2022-11-10T02:47:19.149Z,14.93
2022-11-10T02:50:04.463Z,6.75
2022-11-10T02:52:49.805Z,12.30
2022-11-10T02:55:36.458Z,16.42
2022-11-10T02:58:21.720Z,13.50
2022-11-10T03:01:07.319Z,12.27
2022-11-10T03:03:52.504Z,11.98
2022-11-10T03:06:37.812Z,10.73
2022-11-10T03:09:22.804Z,10.20
2022-11-10T03:12:09.215Z,13.10
2022-11-10T03:14:54.273Z,12.98
2022-11-10T03:17:39.675Z,11.35
2022-11-10T03:20:24.976Z,10.85
2022-11-10T03:23:10.047Z,9.05
2022-11-10T03:25:55.049Z,11.73
2022-11-10T03:28:41.480Z,9.65
2022-11-10T03:31:26.374Z,11.27
2022-11-10T03:34:11.345Z,12.85
2022-11-10T03:36:56.309Z,12.20
2022-11-10T03:39:41.499Z,18.92
2022-11-10T03:42:26.811Z,13.15
2022-11-10T03:45:14.651Z,10.27
2022-11-10T03:47:59.892Z,10.05
2022-11-10T03:50:45.157Z,10.68
2022-11-10T03:53:30.597Z,15.82
2022-11-10T03:56:16.549Z,11.25
2022-11-10T03:59:01.842Z,12.85
2022-11-10T04:01:48.584Z,13.00
2022-11-10T04:04:33.823Z,12.48
2022-11-10T04:07:19.253Z,15.30
2022-11-10T04:10:05.881Z,14.07
2022-11-10T04:12:51.227Z,16.88
2022-11-10T04:15:36.336Z,16.35
2022-11-10T04:18:22.959Z,10.25
2022-11-10T04:21:08.317Z,12.18
2022-11-10T04:23:53.827Z,15.68
2022-11-10T04:26:39.026Z,16.73
2022-11-10T04:29:24.282Z,19.17
2022-11-10T04:32:09.934Z,15.57
2022-11-10T04:34:56.760Z,14.77
2022-11-10T04:37:41.895Z,15.90
2022-11-10T04:40:27.088Z,15.43
2022-11-10T04:43:16.595Z,12.90
2022-11-10T04:46:03.310Z,14.80
2022-11-10T04:48:49.449Z,14.35
2022-11-10T04:51:38.104Z,13.98
2022-11-10T04:54:23.781Z,11.13
2022-11-10T04:57:09.146Z,11.40
2022-11-10T04:59:54.738Z,8.02
2022-11-10T05:02:42.159Z,13.50
2022-11-10T05:05:27.288Z,18.17
2022-11-10T05:08:14.062Z,19.02
2022-11-10T05:10:59.560Z,12.15
2022-11-10T05:13:45.947Z,18.08
2022-11-10T05:16:31.419Z,16.35
2022-11-10T05:19:16.461Z,17.92
2022-11-10T05:22:01.870Z,15.98
2022-11-10T05:24:48.420Z,19.65
2022-11-10T05:27:33.674Z,18.63
2022-11-10T05:30:19.113Z,13.95
2022-11-10T05:33:04.792Z,18.80
2022-11-10T05:35:50.596Z,18.10
2022-11-10T05:38:41.899Z,15.52
2022-11-10T05:41:30.119Z,16.58
2022-11-10T05:44:16.980Z,11.27
2022-11-10T05:47:02.489Z,13.82
2022-11-10T05:49:47.852Z,14.27
2022-11-10T05:52:33.242Z,11.43
2022-11-10T05:55:20.683Z,14.32
2022-11-10T05:58:07.366Z,17.35
2022-11-10T06:00:52.523Z,17.83
2022-11-10T06:03:38.639Z,13.57
2022-11-10T06:06:24.163Z,13.52
2022-11-10T06:09:09.697Z,15.88
2022-11-10T06:11:54.827Z,16.67
2022-11-10T06:14:41.505Z,10.95
2022-11-10T06:17:26.790Z,14.18
2022-11-10T06:20:13.286Z,11.70
2022-11-10T06:23:00.988Z,12.80
2022-11-10T06:25:46.417Z,11.70
2022-11-10T06:28:31.782Z,17.60
2022-11-10T06:31:18.323Z,11.68
2022-11-10T06:34:03.865Z,14.05
2022-11-10T06:36:49.108Z,14.43
2022-11-10T06:39:34.941Z,17.65
2022-11-10T06:42:19.992Z,13.00
2022-11-10T06:45:05.952Z,14.20
2022-11-10T06:48:00.689Z,14.15
2022-11-10T06:50:48.942Z,11.82
2022-11-10T06:53:34.600Z,16.70
2022-11-10T06:56:20.272Z,16.92
2022-11-10T06:59:05.653Z,16.50
2022-11-10T07:01:50.957Z,11.05
2022-11-10T07:04:38.192Z,14.45
2022-11-10T07:07:23.715Z,17.52
2022-11-10T07:10:09.282Z,16.58
2022-11-10T07:13:00.134Z,11.20
2022-11-10T07:15:45.820Z,13.25
2022-11-10T07:18:31.384Z,16.20
2022-11-10T07:21:18.183Z,15.60
2022-11-10T07:24:04.155Z,10.63
2022-11-10T07:26:49.778Z,15.52
2022-11-10T07:29:35.370Z,10.30
2022-11-10T07:32:20.853Z,15.30
2022-11-10T07:35:06.347Z,13.82
2022-11-10T07:37:53.508Z,15.65
2022-11-10T07:40:38.953Z,17.50
2022-11-10T07:43:25.761Z,14.63
2022-11-10T07:46:11.582Z,17.77
2022-11-10T07:48:56.951Z,16.48
2022-11-10T07:51:42.794Z,11.90
2022-11-10T07:54:29.284Z,11.25
2022-11-10T07:57:14.844Z,16.85
2022-11-10T08:00:00.691Z,18.70
2022-11-10T08:02:45.914Z,16.10
2022-11-10T08:05:31.477Z,15.50
2022-11-10T08:08:20.770Z,16.73
2022-11-10T08:11:07.928Z,11.98
2022-11-10T08:13:53.297Z,15.32
2022-11-10T08:16:38.486Z,19.73
2022-11-10T08:19:23.772Z,15.75
2022-11-10T08:22:09.061Z,10.75
2022-11-10T08:24:54.426Z,14.93
2022-11-10T08:27:41.610Z,14.57
2022-11-10T08:30:28.339Z,14.55
2022-11-10T08:33:16.120Z,15.40
2022-11-10T08:36:01.662Z,11.15
2022-11-10T08:38:47.063Z,17.30
2022-11-10T08:41:32.766Z,18.52
2022-11-10T08:44:20.997Z,14.70
2022-11-10T08:47:06.569Z,15.52
2022-11-10T08:49:52.219Z,13.38
2022-11-10T08:52:37.625Z,16.67
2022-11-10T08:55:23.366Z,9.55
2022-11-10T08:58:12.819Z,13.98
2022-11-10T09:00:59.445Z,14.25
2022-11-10T09:03:44.695Z,15.02
2022-11-10T09:06:30.187Z,15.85
2022-11-10T09:09:16.171Z,11.23
2022-11-10T09:12:01.651Z,20.50
2022-11-10T09:14:47.566Z,20.55
2022-11-10T09:17:35.216Z,18.30
2022-11-10T09:20:20.681Z,10.82
2022-11-10T09:23:06.537Z,11.75
2022-11-10T09:25:56.049Z,15.32
2022-11-10T09:28:41.530Z,9.68
2022-11-10T09:31:27.266Z,12.68
2022-11-10T09:34:14.181Z,14.90
2022-11-10T09:36:59.951Z,11.35
2022-11-10T09:39:45.494Z,13.10
2022-11-10T09:42:35.096Z,14.30
2022-11-10T09:45:26.719Z,14.73
2022-11-10T09:48:19.650Z,16.65
2022-11-10T09:51:10.161Z,13.63
2022-11-10T09:53:57.808Z,17.75
2022-11-10T09:56:43.041Z,11.90
2022-11-10T09:59:30.297Z,15.05
2022-11-10T10:02:23.816Z,12.32
2022-11-10T10:05:35.377Z,25.60
2022-11-10T10:08:32.161Z,12.90
2022-11-10T10:11:29.729Z,10.77
2022-11-10T10:14:31.043Z,13.98
2022-11-10T10:17:26.882Z,9.55
2022-11-10T10:20:19.603Z,9.20
2022-11-10T10:23:16.363Z,17.25
2022-11-10T10:26:03.642Z,8.68
2022-11-10T10:28:51.521Z,16.83
2022-11-10T10:31:42.160Z,13.02
2022-11-10T10:34:30.551Z,13.68
2022-11-10T10:37:23.190Z,8.80
2022-11-10T10:40:13.638Z,14.95
2022-11-10T10:43:01.011Z,7.28
2022-11-10T10:46:03.991Z,9.52
2022-11-10T10:52:12.574Z,13.43
2022-11-10T10:55:00.672Z,10.27
2022-11-10T10:57:51.355Z,12.63
2022-11-10T11:00:44.976Z,15.85
2022-11-10T11:03:39.188Z,10.00
2022-11-10T11:06:26.070Z,15.40
2022-11-10T11:09:17.985Z,11.90
2022-11-10T11:12:06.213Z,11.57
2022-11-10T11:14:51.686Z,9.30
2022-11-10T11:17:38.546Z,13.02
2022-11-10T11:20:32.445Z,16.25
2022-11-10T11:23:38.854Z,9.43
2022-11-10T11:26:35.181Z,14.10
2022-11-10T11:29:33.231Z,15.85
2022-11-10T11:32:29.530Z,12.88
2022-11-10T11:35:24.389Z,10.30
2022-11-10T11:38:13.380Z,9.25
2022-11-10T11:41:13.413Z,12.68
2022-11-10T11:44:12.560Z,6.63
2022-11-10T11:47:18.636Z,8.65
2022-11-10T11:50:20.537Z,8.65
2022-11-10T11:53:19.345Z,7.55
2022-11-10T11:56:16.246Z,6.90
2022-11-10T11:59:19.892Z,9.85
2022-11-10T12:02:27.087Z,9.07
2022-11-10T12:05:27.812Z,6.72
2022-11-10T12:08:27.025Z,8.07
2022-11-10T12:11:19.834Z,10.18
2022-11-10T12:14:17.034Z,8.80
2022-11-10T12:17:09.402Z,10.48
2022-11-10T12:20:03.239Z,7.70
2022-11-10T12:23:00.913Z,11.93
2022-11-10T12:25:54.363Z,8.13
2022-11-10T12:28:45.379Z,8.38
2022-11-10T12:31:34.192Z,6.00
2022-11-10T12:34:29.238Z,5.80
2022-11-10T12:37:26.554Z,8.15
2022-11-10T12:40:18.080Z,8.82
2022-11-10T12:43:10.970Z,9.38
2022-11-10T12:45:59.725Z,11.10
2022-11-10T12:48:55.867Z,7.68
2022-11-10T12:51:48.457Z,7.80
2022-11-10T12:54:35.815Z,5.43
2022-11-10T12:57:26.253Z,10.68
2022-11-10T13:00:28.006Z,6.03
2022-11-10T13:03:24.187Z,7.38
2022-11-10T13:06:25.749Z,9.45
2022-11-10T13:09:23.009Z,8.82
2022-11-10T13:12:30.046Z,6.55
2022-11-10T13:15:54.684Z,6.78
2022-11-10T13:18:57.645Z,9.77
2022-11-10T13:22:24.391Z,6.78
2022-11-10T13:25:42.220Z,6.30
2022-11-10T13:29:01.164Z,7.90
2022-11-10T13:31:54.673Z,6.15
2022-11-10T13:34:40.426Z,6.82
2022-11-10T13:37:48.024Z,7.47
2022-11-10T13:40:36.600Z,5.43
2022-11-10T13:43:26.882Z,7.82
2022-11-10T13:46:14.971Z,4.77
2022-11-10T13:49:31.064Z,8.38
2022-11-10T13:52:20.117Z,6.45
2022-11-10T13:55:27.257Z,4.85
2022-11-10T13:58:19.384Z,7.13
2022-11-10T14:01:25.306Z,11.15
2022-11-10T14:04:38.406Z,6.47
2022-11-10T14:07:25.112Z,4.22
2022-11-10T14:10:15.687Z,6.90
2022-11-10T14:13:05.022Z,5.05
2022-11-10T14:15:53.322Z,6.35
2022-11-10T14:18:44.968Z,10.50
2022-11-10T14:21:39.784Z,4.13
2022-11-10T14:24:28.647Z,8.75
2022-11-10T14:27:20.910Z,5.25
2022-11-10T14:32:55.977Z,7.32
2022-11-10T14:35:49.307Z,7.78
2022-11-10T14:38:35.173Z,11.55
2022-11-10T14:41:22.406Z,8.02
2022-11-10T14:44:13.522Z,7.45
2022-11-10T14:47:13.828Z,9.80
2022-11-10T14:50:17.909Z,11.77
2022-11-10T14:53:12.181Z,3.85
2022-11-10T14:55:58.880Z,10.18
2022-11-10T14:58:46.328Z,4.72
2022-11-10T15:01:35.475Z,4.32
2022-11-10T15:04:26.759Z,5.40
2022-11-10T15:07:12.604Z,7.18
2022-11-10T15:10:06.402Z,7.30
2022-11-10T15:12:59.675Z,8.52
2022-11-10T15:15:48.596Z,8.40
2022-11-10T15:18:34.233Z,6.30
2022-11-10T15:21:21.495Z,8.80
2022-11-10T15:24:07.817Z,6.68
2022-11-10T15:26:55.196Z,7.07
2022-11-10T15:29:40.749Z,6.65
2022-11-10T15:32:33.236Z,7.45
2022-11-10T15:35:28.536Z,9.07
2022-11-10T15:38:26.790Z,6.18
2022-11-10T15:41:27.123Z,5.25
2022-11-10T15:44:17.569Z,4.85
2022-11-10T15:47:02.935Z,8.63
2022-11-10T15:49:48.240Z,6.75
2022-11-10T15:52:34.086Z,5.32
2022-11-10T15:55:20.420Z,10.52
2022-11-10T15:58:11.883Z,6.63
2022-11-10T16:01:00.230Z,6.60
2022-11-10T16:03:47.251Z,4.55
2022-11-10T16:06:33.001Z,6.57
2022-11-10T16:09:19.461Z,4.07
2022-11-10T16:12:05.242Z,6.18
2022-11-10T16:14:52.787Z,8.93
2022-11-10T16:17:39.559Z,8.43
2022-11-10T16:20:24.990Z,6.95
2022-11-10T16:23:10.325Z,5.30
2022-11-10T16:25:57.132Z,8.43
2022-11-10T16:28:43.054Z,7.95
2022-11-10T16:31:28.541Z,4.82
2022-11-10T16:34:15.253Z,9.05
2022-11-10T16:37:00.926Z,9.57
2022-11-10T16:39:48.912Z,4.85
2022-11-10T16:42:34.349Z,6.68
2022-11-10T16:45:21.327Z,9.57
2022-11-10T16:48:07.375Z,9.25
2022-11-10T16:50:55.972Z,6.65
2022-11-10T16:53:41.917Z,4.28
2022-11-10T16:56:27.503Z,7.60
2022-11-10T16:59:15.377Z,6.85
2022-11-10T17:02:00.703Z,7.28
2022-11-10T17:04:46.342Z,11.98
2022-11-10T17:07:33.738Z,5.88
2022-11-10T17:10:20.928Z,11.25
2022-11-10T17:13:06.001Z,5.40
2022-11-10T17:15:53.832Z,5.40
2022-11-10T17:18:39.055Z,5.82
2022-11-10T17:21:31.470Z,11.13
2022-11-10T17:24:20.033Z,6.93
2022-11-10T17:27:05.385Z,7.15
2022-11-10T17:29:50.784Z,10.55
2022-11-10T17:33:03.104Z,6.93
2022-11-10T17:35:44.749Z,10.52
2022-11-10T17:38:32.428Z,4.75
2022-11-10T17:41:20.231Z,7.43
2022-11-10T17:44:10.325Z,9.82
2022-11-10T17:46:55.831Z,4.75
2022-11-10T17:49:40.968Z,5.72
2022-11-10T17:52:26.279Z,10.43
2022-11-10T17:55:17.850Z,3.78
2022-11-10T17:58:04.295Z,6.80
2022-11-10T18:00:50.071Z,4.05
2022-11-10T18:03:35.709Z,7.03
2022-11-10T18:06:21.287Z,3.60
2022-11-10T18:09:06.950Z,3.35
2022-11-10T18:11:52.404Z,6.95
2022-11-10T18:14:38.925Z,5.28
2022-11-10T18:17:24.747Z,8.02
2022-11-10T18:20:11.869Z,7.30
2022-11-10T18:22:57.555Z,6.15
2022-11-10T18:25:43.189Z,6.85
2022-11-10T18:28:29.017Z,7.95
2022-11-10T18:31:15.730Z,7.40
2022-11-10T18:34:01.067Z,6.70
2022-11-10T18:36:46.383Z,6.65
2022-11-10T18:39:31.812Z,7.53
2022-11-10T18:42:19.375Z,7.63
2022-11-10T18:45:05.526Z,7.68
2022-11-10T18:47:52.339Z,4.85
2022-11-10T18:50:42.402Z,9.35
2022-11-10T18:53:34.242Z,5.30
2022-11-10T18:56:22.417Z,6.97
2022-11-10T18:59:07.966Z,4.97
2022-11-10T19:01:53.307Z,6.70
2022-11-10T19:04:40.682Z,4.15
2022-11-10T19:07:26.597Z,6.95
2022-11-10T19:10:11.953Z,6.78
2022-11-10T19:12:57.705Z,6.05
2022-11-10T19:15:43.261Z,9.73
2022-11-10T19:18:29.497Z,9.40
2022-11-10T19:21:19.907Z,6.15
2022-11-10T19:24:06.258Z,5.18
2022-11-10T19:26:52.421Z,8.80
2022-11-10T19:29:37.647Z,6.88
2022-11-10T19:32:25.015Z,7.80
2022-11-10T19:35:10.837Z,5.97
2022-11-10T19:37:57.754Z,9.07
2022-11-10T19:40:43.524Z,5.30
2022-11-10T19:43:31.057Z,8.93
2022-11-10T19:46:18.430Z,5.13
2022-11-10T19:49:04.157Z,7.55
2022-11-10T19:51:51.245Z,8.65
2022-11-10T19:54:38.323Z,7.45
2022-11-10T19:57:24.104Z,8.07
2022-11-10T20:00:10.836Z,8.82
2022-11-10T20:02:56.699Z,10.57
2022-11-10T20:05:43.518Z,7.45
2022-11-10T20:08:29.126Z,10.35
2022-11-10T20:11:18.340Z,5.85
2022-11-10T20:14:03.870Z,8.18
2022-11-10T20:16:48.955Z,8.68
2022-11-10T20:19:40.163Z,12.52
2022-11-10T20:22:25.894Z,6.30
2022-11-10T20:25:15.632Z,7.55
2022-11-10T20:28:02.318Z,7.60
2022-11-10T20:30:47.485Z,7.55
2022-11-10T20:33:34.553Z,8.07
2022-11-10T20:36:22.519Z,7.97
2022-11-10T20:39:08.919Z,9.23
2022-11-10T20:41:54.546Z,10.18
2022-11-10T20:44:42.886Z,6.63
2022-11-10T20:47:28.654Z,5.22
2022-11-10T20:50:16.364Z,7.57
2022-11-10T20:53:04.836Z,11.02
2022-11-10T20:55:54.142Z,9.82
2022-11-10T20:58:40.808Z,7.13
2022-11-10T21:01:27.928Z,5.63
2022-11-10T21:04:30.547Z,10.45
2022-11-10T21:07:15.796Z,8.43
2022-11-10T21:10:01.697Z,8.18
2022-11-10T21:12:47.243Z,9.93
2022-11-10T21:15:32.435Z,7.38
2022-11-10T21:18:19.621Z,8.25
2022-11-10T21:21:18.344Z,5.43
2022-11-10T21:24:05.216Z,5.50
2022-11-10T21:26:50.315Z,6.55
2022-11-10T21:29:35.680Z,7.90
2022-11-10T21:32:20.937Z,8.73
2022-11-10T21:35:08.775Z,9.43
2022-11-10T21:37:54.347Z,5.93
2022-11-10T21:40:40.023Z,7.63
2022-11-10T21:43:25.818Z,9.38
2022-11-10T21:46:11.087Z,8.02
2022-11-10T21:48:56.535Z,11.27
2022-11-10T21:51:43.309Z,8.00
2022-11-10T21:54:28.856Z,9.55
2022-11-10T21:57:14.261Z,9.05
2022-11-10T21:59:59.319Z,7.65
2022-11-10T22:02:44.664Z,7.05
2022-11-10T22:05:30.066Z,11.15
2022-11-10T22:08:22.028Z,8.68
2022-11-10T22:11:11.851Z,7.90
2022-11-10T22:13:57.688Z,5.53
2022-11-10T22:16:45.943Z,8.40
2022-11-10T22:19:32.123Z,8.18
2022-11-10T22:22:17.253Z,5.13
2022-11-10T22:25:05.015Z,10.13
2022-11-10T22:27:50.591Z,6.30
2022-11-10T22:30:36.684Z,6.93
2022-11-10T22:33:22.046Z,10.38
2022-11-10T22:36:11.479Z,6.40
2022-11-10T22:39:00.553Z,7.55
2022-11-10T22:41:50.283Z,9.73
2022-11-10T22:44:36.276Z,7.28
2022-11-10T22:47:21.766Z,7.40
2022-11-10T22:50:07.492Z,10.27
2022-11-10T22:52:52.634Z,7.00
2022-11-10T22:55:37.766Z,6.70
2022-11-10T22:58:24.372Z,8.27
2022-11-10T23:01:11.090Z,8.13
2022-11-10T23:03:57.685Z,6.00
2022-11-10T23:06:43.115Z,7.07
2022-11-10T23:09:28.436Z,7.03
2022-11-10T23:12:13.720Z,4.93
2022-11-10T23:15:00.538Z,8.13
2022-11-10T23:17:45.976Z,9.60
2022-11-10T23:20:31.114Z,9.50
2022-11-10T23:23:16.220Z,9.15
2022-11-10T23:26:02.728Z,8.00
2022-11-10T23:28:48.752Z,4.90
2022-11-10T23:31:35.463Z,13.18
2022-11-10T23:34:20.947Z,7.70
2022-11-10T23:37:06.118Z,8.98
2022-11-10T23:39:51.620Z,7.53
2022-11-10T23:42:36.953Z,8.15
2022-11-10T23:45:22.159Z,4.13
2022-11-10T23:48:09.143Z,8.18
2022-11-10T23:50:54.927Z,7.03
2022-11-10T23:53:40.317Z,4.90
2022-11-10T23:56:25.939Z,9.43
2022-11-10T23:59:11.237Z,9.23
